Time;durP1;ratioP1;P1;durP2;ratioP2;P2;SDS_P1;SDS_P2;PMS_P1;PMS_P2;Temp;Humidity;BMP_temperature;BMP_pressure;BME280_temperature;BME280_humidity;BME280_pressure;Samples;Min_cycle;Max_cycle;Signal;HPM_P1;HPM_P2
2022/04/29 00:00:23;;;;;;;17.02;8.52;;;5.10;99.90;;;;;;5112206;28;20431;-72
2022/04/29 00:02:51;;;;;;;15.70;8.48;;;5.10;99.90;;;;;;5109656;28;20451;-72
2022/04/29 00:05:16;;;;;;;16.08;8.90;;;5.10;99.90;;;;;;5111311;28;20450;-72
2022/04/29 00:07:44;;;;;;;11.32;7.97;;;5.10;99.90;;;;;;5111058;28;20044;-72
2022/04/29 00:10:13;;;;;;;16.10;8.50;;;5.00;99.90;;;;;;5111083;28;20044;-72
2022/04/29 00:12:43;;;;;;;16.08;9.32;;;5.00;99.90;;;;;;5110700;28;20496;-72
2022/04/29 00:15:12;;;;;;;13.40;8.18;;;5.00;99.90;;;;;;5113265;28;20071;-73
2022/04/29 00:17:38;;;;;;;16.63;8.70;;;4.90;99.90;;;;;;5114667;28;20127;-72
2022/04/29 00:20:06;;;;;;;12.73;8.07;;;4.90;99.90;;;;;;5114911;28;20290;-72
2022/04/29 00:22:32;;;;;;;16.35;8.48;;;4.90;99.90;;;;;;5116034;28;20082;-72
2022/04/29 00:24:57;;;;;;;18.20;8.82;;;4.90;99.90;;;;;;5114935;28;20063;-72
2022/04/29 00:27:23;;;;;;;15.45;8.38;;;4.90;99.90;;;;;;5114519;28;20040;-72
2022/04/29 00:29:49;;;;;;;14.13;7.82;;;4.90;99.90;;;;;;5115778;28;20514;-72
2022/04/29 00:32:15;;;;;;;13.82;7.70;;;4.90;99.90;;;;;;5114194;28;20039;-72
2022/04/29 00:34:41;;;;;;;15.68;8.82;;;4.90;99.90;;;;;;5115134;28;20484;-73
2022/04/29 00:37:07;;;;;;;13.85;8.73;;;4.90;99.90;;;;;;5115969;28;20028;-72
2022/04/29 00:39:33;;;;;;;14.63;8.30;;;4.90;99.90;;;;;;5115908;28;20118;-72
2022/04/29 00:41:59;;;;;;;17.08;8.85;;;4.90;99.90;;;;;;5114540;28;20177;-73
2022/04/29 00:44:25;;;;;;;14.25;7.93;;;4.90;99.90;;;;;;5115570;28;20075;-72
2022/04/29 00:46:51;;;;;;;10.88;8.27;;;4.90;99.90;;;;;;5115479;28;20040;-72
2022/04/29 00:49:18;;;;;;;14.95;8.40;;;4.90;99.90;;;;;;5115452;28;20052;-72
2022/04/29 00:51:49;;;;;;;13.15;8.20;;;4.90;99.90;;;;;;5097226;28;20052;-72
2022/04/29 00:54:27;;;;;;;13.02;8.48;;;5.00;99.90;;;;;;5111816;28;20059;-72
2022/04/29 00:56:53;;;;;;;17.27;8.48;;;4.90;99.90;;;;;;5114378;28;20046;-72
2022/04/29 00:59:31;;;;;;;14.73;8.30;;;4.90;99.90;;;;;;5114092;28;20043;-72
2022/04/29 01:02:00;;;;;;;14.05;8.82;;;5.00;99.90;;;;;;5097163;28;20101;-72
2022/04/29 01:04:37;;;;;;;16.10;8.48;;;5.00;99.90;;;;;;5111401;28;20047;-72
2022/04/29 01:07:03;;;;;;;17.83;8.98;;;5.00;99.90;;;;;;5114875;28;20039;-72
2022/04/29 01:09:29;;;;;;;14.05;8.27;;;5.00;99.90;;;;;;5114073;28;20462;-72
2022/04/29 01:11:55;;;;;;;21.02;8.57;;;5.00;99.90;;;;;;5113727;28;20082;-72
2022/04/29 01:14:22;;;;;;;14.77;8.75;;;5.00;99.90;;;;;;5115198;28;20038;-72
2022/04/29 01:16:47;;;;;;;13.23;8.45;;;5.00;99.90;;;;;;5113979;28;20459;-72
2022/04/29 01:19:13;;;;;;;12.90;8.10;;;5.00;99.90;;;;;;5113569;28;20131;-72
2022/04/29 01:21:40;;;;;;;13.75;8.23;;;5.00;99.90;;;;;;5114862;28;20045;-72
2022/04/29 01:24:08;;;;;;;16.42;8.88;;;5.00;99.90;;;;;;5113772;28;20032;-72
2022/04/29 01:26:34;;;;;;;14.82;8.93;;;5.00;99.90;;;;;;5112386;28;20437;-72
2022/04/29 01:29:01;;;;;;;15.85;8.73;;;5.00;99.90;;;;;;5113299;28;20039;-72
2022/04/29 01:31:29;;;;;;;16.52;9.13;;;5.00;99.90;;;;;;5114922;28;20036;-73
2022/04/29 01:33:56;;;;;;;13.13;8.88;;;4.90;99.90;;;;;;5112087;28;20499;-72
2022/04/29 01:36:22;;;;;;;14.95;8.85;;;4.90;99.90;;;;;;5113290;28;20069;-72
2022/04/29 01:38:47;;;;;;;19.33;9.80;;;4.90;99.90;;;;;;5113414;28;20036;-72
2022/04/29 01:41:13;;;;;;;14.80;9.52;;;4.90;99.90;;;;;;5113365;28;20491;-72
2022/04/29 01:43:39;;;;;;;16.08;8.93;;;4.90;99.90;;;;;;5096133;28;20046;-72
2022/04/29 01:46:05;;;;;;;14.52;9.23;;;4.90;99.90;;;;;;5113194;28;20051;-72
2022/04/29 01:48:31;;;;;;;14.98;9.50;;;4.90;99.90;;;;;;5112863;28;20051;-72
2022/04/29 01:50:57;;;;;;;13.25;9.73;;;4.90;99.90;;;;;;5113146;28;20069;-72
2022/04/29 01:53:23;;;;;;;16.83;9.48;;;5.00;99.90;;;;;;5113222;28;20053;-72
2022/04/29 01:55:48;;;;;;;18.33;9.40;;;4.90;99.90;;;;;;5114154;28;20066;-72
2022/04/29 01:58:15;;;;;;;16.63;8.95;;;4.90;99.90;;;;;;5112874;28;20503;-72
2022/04/29 02:00:41;;;;;;;16.02;8.85;;;5.00;99.90;;;;;;5112818;28;20047;-72
2022/04/29 02:03:07;;;;;;;17.50;9.15;;;5.00;99.90;;;;;;5110362;28;20058;-72
2022/04/29 02:05:33;;;;;;;13.45;9.00;;;5.00;99.90;;;;;;5114063;27;20039;-72
2022/04/29 02:08:00;;;;;;;18.05;9.68;;;4.90;99.90;;;;;;5095974;28;20032;-72
2022/04/29 02:10:26;;;;;;;17.83;8.60;;;4.90;99.90;;;;;;5113108;28;20387;-72
2022/04/29 02:12:52;;;;;;;14.25;9.73;;;5.00;99.90;;;;;;5112894;28;20065;-72
2022/04/29 02:15:20;;;;;;;14.38;9.32;;;4.90;99.90;;;;;;5095777;28;20047;-72
2022/04/29 02:17:46;;;;;;;15.77;8.75;;;4.90;99.90;;;;;;5113969;27;20044;-72
2022/04/29 02:20:12;;;;;;;14.85;8.65;;;4.90;99.90;;;;;;5095688;28;20126;-72
2022/04/29 02:22:39;;;;;;;14.30;9.13;;;4.90;99.90;;;;;;5112358;28;20052;-72
2022/04/29 02:25:06;;;;;;;19.85;9.80;;;4.90;99.90;;;;;;5113535;28;20079;-72
2022/04/29 02:27:32;;;;;;;14.55;9.23;;;4.90;99.90;;;;;;5112382;28;20491;-72
2022/04/29 02:29:57;;;;;;;21.38;9.27;;;4.90;99.90;;;;;;5109186;28;20039;-72
2022/04/29 02:32:24;;;;;;;17.38;8.05;;;4.80;99.90;;;;;;5109823;28;20043;-72
2022/04/29 02:34:50;;;;;;;14.85;8.60;;;4.80;99.90;;;;;;5113465;28;20085;-72
2022/04/29 02:37:17;;;;;;;16.83;8.60;;;4.80;99.90;;;;;;5112125;28;20043;-72
2022/04/29 02:39:42;;;;;;;15.15;8.40;;;4.80;99.90;;;;;;5113078;28;20549;-72
2022/04/29 02:42:08;;;;;;;18.83;8.82;;;4.80;99.90;;;;;;5111960;28;20043;-72
2022/04/29 02:44:34;;;;;;;17.60;9.07;;;4.80;99.90;;;;;;5112211;28;20035;-72
2022/04/29 02:47:09;;;;;;;14.32;8.27;;;4.70;99.90;;;;;;5095232;28;20472;-72
2022/04/29 02:49:45;;;;;;;12.43;8.20;;;4.70;99.90;;;;;;5111731;28;20247;-72
2022/04/29 02:52:12;;;;;;;13.73;8.95;;;4.70;99.90;;;;;;5111810;28;20044;-72
2022/04/29 02:54:39;;;;;;;15.98;9.15;;;4.70;99.90;;;;;;5108915;28;20070;-72
2022/04/29 02:57:05;;;;;;;11.85;8.00;;;4.60;99.90;;;;;;5111991;28;20112;-72
2022/04/29 02:59:31;;;;;;;14.27;8.10;;;4.60;99.90;;;;;;5111540;28;20131;-72
2022/04/29 03:01:57;;;;;;;20.85;9.05;;;4.50;99.90;;;;;;5111582;28;20055;-72
2022/04/29 03:04:23;;;;;;;12.30;8.27;;;4.50;99.90;;;;;;5109376;28;20057;-72
2022/04/29 03:06:49;;;;;;;12.55;8.20;;;4.40;99.90;;;;;;5094551;28;20400;-72
2022/04/29 03:09:16;;;;;;;12.82;9.23;;;4.40;99.90;;;;;;5111528;28;20047;-72
2022/04/29 03:11:42;;;;;;;15.25;7.97;;;4.40;99.90;;;;;;5111453;28;20043;-72
2022/04/29 03:14:08;;;;;;;18.10;9.48;;;4.40;99.90;;;;;;5112776;28;20046;-72
2022/04/29 03:16:34;;;;;;;15.98;9.05;;;4.40;99.90;;;;;;5111430;28;20055;-72
2022/04/29 03:19:01;;;;;;;15.15;8.75;;;4.40;99.90;;;;;;5112559;28;20044;-72
2022/04/29 03:21:26;;;;;;;15.93;8.65;;;4.40;99.90;;;;;;5094261;28;20104;-72
2022/04/29 03:23:53;;;;;;;13.50;8.50;;;4.40;99.90;;;;;;5111746;28;20035;-72
2022/04/29 03:26:18;;;;;;;15.38;8.95;;;4.40;99.90;;;;;;5094275;28;20035;-73
2022/04/29 03:28:44;;;;;;;17.65;8.85;;;4.40;99.90;;;;;;5111367;28;20048;-72
2022/04/29 03:31:10;;;;;;;35.92;10.50;;;4.40;99.90;;;;;;5112433;28;20031;-72
2022/04/29 03:33:36;;;;;;;19.23;8.90;;;4.40;99.90;;;;;;5108764;28;20403;-72
2022/04/29 03:36:02;;;;;;;20.52;9.45;;;4.40;99.90;;;;;;5111961;28;20172;-72
2022/04/29 03:38:28;;;;;;;13.25;9.07;;;4.40;99.90;;;;;;5111160;28;20035;-72
2022/04/29 03:40:54;;;;;;;16.25;9.45;;;4.40;99.90;;;;;;5111391;28;20047;-72
2022/04/29 03:43:20;;;;;;;15.02;8.50;;;4.40;99.90;;;;;;5110969;28;20039;-72
2022/04/29 03:45:47;;;;;;;14.80;8.82;;;4.40;99.90;;;;;;5111054;28;20039;-72
2022/04/29 03:48:13;;;;;;;14.55;8.55;;;4.40;99.90;;;;;;5093788;28;20561;-72
2022/04/29 03:50:39;;;;;;;15.27;8.73;;;4.40;99.90;;;;;;5116751;28;20035;-72
2022/04/29 03:53:06;;;;;;;13.40;8.52;;;4.50;99.90;;;;;;5119151;27;20480;-72
2022/04/29 03:55:34;;;;;;;11.57;7.57;;;4.50;99.90;;;;;;5119155;27;20123;-72
2022/04/29 03:58:02;;;;;;;13.43;7.75;;;4.50;99.90;;;;;;5119150;27;20050;-72
2022/04/29 04:00:31;;;;;;;13.45;8.73;;;4.50;99.90;;;;;;5118892;27;20043;-72
2022/04/29 04:02:58;;;;;;;15.55;8.98;;;4.50;99.90;;;;;;5116521;27;20044;-73
2022/04/29 04:05:24;;;;;;;11.77;8.38;;;4.50;99.90;;;;;;5117911;28;20300;-72
2022/04/29 04:07:50;;;;;;;13.18;8.55;;;4.50;99.90;;;;;;5117924;28;20039;-72
2022/04/29 04:10:16;;;;;;;13.48;8.90;;;4.60;99.90;;;;;;5117534;28;20048;-72
2022/04/29 04:12:47;;;;;;;14.07;8.40;;;4.60;99.90;;;;;;5118870;27;20500;-72
2022/04/29 04:15:14;;;;;;;20.00;8.98;;;4.60;99.90;;;;;;5117767;28;20400;-72
2022/04/29 04:17:41;;;;;;;13.80;8.40;;;4.70;99.90;;;;;;5118796;28;20039;-72
2022/04/29 04:20:08;;;;;;;13.57;8.10;;;4.70;99.90;;;;;;5117502;28;20040;-72
2022/04/29 04:22:35;;;;;;;15.00;8.68;;;4.70;99.90;;;;;;5117594;28;20395;-72
2022/04/29 04:25:10;;;;;;;14.40;8.35;;;4.80;99.90;;;;;;5118857;27;20043;-72
2022/04/29 04:27:36;;;;;;;15.02;8.80;;;4.80;99.90;;;;;;5118705;27;20563;-72
2022/04/29 04:30:03;;;;;;;20.33;8.73;;;4.80;99.90;;;;;;5117447;28;20123;-72
2022/04/29 04:32:33;;;;;;;24.92;9.80;;;4.90;99.90;;;;;;5116485;27;20047;-72
2022/04/29 04:35:00;;;;;;;13.52;8.35;;;5.00;99.90;;;;;;5097773;28;20510;-72
2022/04/29 04:37:29;;;;;;;15.50;8.02;;;5.00;99.90;;;;;;5100562;28;20039;-72
2022/04/29 04:39:58;;;;;;;14.85;8.65;;;5.10;99.90;;;;;;5117668;28;20073;-72
2022/04/29 04:42:24;;;;;;;18.58;9.30;;;5.10;99.90;;;;;;5117206;28;20050;-72
2022/04/29 04:44:51;;;;;;;15.38;8.88;;;5.10;99.90;;;;;;5100369;28;20048;-72
2022/04/29 04:47:18;;;;;;;13.20;9.95;;;5.20;99.90;;;;;;5117468;28;20078;-72
2022/04/29 04:49:43;;;;;;;14.35;8.70;;;5.20;99.90;;;;;;5117112;28;20492;-72
2022/04/29 04:52:09;;;;;;;16.85;9.60;;;5.30;99.90;;;;;;5117185;28;20046;-72
2022/04/29 04:54:36;;;;;;;17.30;8.95;;;5.30;99.90;;;;;;5117265;28;20522;-72
2022/04/29 04:57:03;;;;;;;15.73;8.88;;;5.40;99.90;;;;;;5100072;28;20039;-72
2022/04/29 04:59:29;;;;;;;15.90;9.68;;;5.40;99.90;;;;;;5114387;28;20043;-72
2022/04/29 05:01:55;;;;;;;16.65;9.25;;;5.40;99.90;;;;;;5097979;28;20495;-72
2022/04/29 05:04:21;;;;;;;15.48;8.73;;;5.50;99.90;;;;;;5111662;28;20039;-72
2022/04/29 05:06:47;;;;;;;13.57;8.65;;;5.50;99.90;;;;;;5114100;28;20445;-72
2022/04/29 05:09:13;;;;;;;17.67;9.65;;;5.60;99.90;;;;;;5115153;28;20043;-72
2022/04/29 05:11:39;;;;;;;16.90;8.52;;;5.60;99.90;;;;;;5096611;28;20040;-72
2022/04/29 05:14:05;;;;;;;13.77;9.23;;;5.60;99.90;;;;;;5113671;28;20043;-72
2022/04/29 05:16:31;;;;;;;14.70;9.15;;;5.60;99.90;;;;;;5115104;28;20096;-72
2022/04/29 05:18:58;;;;;;;13.02;8.93;;;5.70;99.90;;;;;;5114929;28;20483;-72
2022/04/29 05:21:23;;;;;;;14.40;8.98;;;5.80;99.90;;;;;;5113749;28;20035;-72
2022/04/29 05:23:49;;;;;;;16.35;9.02;;;5.80;99.90;;;;;;5114944;28;20515;-72
2022/04/29 05:26:15;;;;;;;15.38;8.75;;;5.80;99.90;;;;;;5114667;28;20434;-72
2022/04/29 05:28:41;;;;;;;25.40;8.75;;;5.90;99.90;;;;;;5113421;28;20047;-72
2022/04/29 05:31:06;;;;;;;13.70;8.70;;;5.90;99.90;;;;;;5114728;28;20036;-72
2022/04/29 05:33:33;;;;;;;15.02;8.20;;;6.00;99.90;;;;;;5111249;28;20054;-72
2022/04/29 05:36:03;;;;;;;11.93;8.18;;;6.10;99.90;;;;;;5114447;28;20050;-72
2022/04/29 05:42:14;;;;;;;;;;;6.10;99.90;;;;;;5115480;28;20036;-73
2022/04/29 05:43:59;;;;;;;15.32;8.65;;;6.30;99.90;;;;;;5114448;28;20047;-73
2022/04/29 05:46:25;;;;;;;14.32;8.90;;;6.40;99.90;;;;;;5115332;28;20043;-73
2022/04/29 05:48:51;;;;;;;12.57;8.48;;;6.40;99.90;;;;;;5112934;28;20057;-73
2022/04/29 05:51:17;;;;;;;14.90;8.25;;;6.50;99.90;;;;;;5112927;28;20177;-73
2022/04/29 05:53:43;;;;;;;12.57;7.80;;;6.50;99.90;;;;;;5114302;28;20079;-73
2022/04/29 05:56:08;;;;;;;14.80;7.65;;;6.60;99.90;;;;;;5113242;28;20043;-73
2022/04/29 05:58:34;;;;;;;11.98;8.70;;;6.70;99.90;;;;;;5096047;28;20081;-73
2022/04/29 06:01:02;;;;;;;13.77;8.93;;;6.80;99.90;;;;;;5114269;28;20088;-73
2022/04/29 06:03:28;;;;;;;14.82;8.70;;;6.80;99.90;;;;;;5110370;28;20071;-73
2022/04/29 06:05:53;;;;;;;13.40;8.25;;;6.90;99.90;;;;;;5112835;28;20501;-73
2022/04/29 06:08:19;;;;;;;13.90;7.47;;;7.00;99.90;;;;;;5112663;28;20043;-73
2022/04/29 06:10:45;;;;;;;16.70;8.45;;;7.10;99.90;;;;;;5112985;28;20126;-73
2022/04/29 06:13:11;;;;;;;19.95;8.30;;;7.20;99.90;;;;;;5112299;28;20530;-73
2022/04/29 06:15:36;;;;;;;13.98;8.23;;;7.40;99.90;;;;;;5114334;28;20394;-73
2022/04/29 06:18:03;;;;;;;14.68;8.48;;;7.50;99.90;;;;;;5112544;28;20070;-73
2022/04/29 06:20:29;;;;;;;17.30;8.45;;;7.70;99.90;;;;;;5112515;28;20048;-73
2022/04/29 06:22:55;;;;;;;16.50;8.85;;;7.80;99.90;;;;;;5112266;28;20055;-73
2022/04/29 06:25:22;;;;;;;11.05;7.78;;;7.90;99.90;;;;;;5113894;28;20035;-73
2022/04/29 06:27:48;;;;;;;12.52;8.10;;;8.00;99.90;;;;;;5116785;28;20073;-73
2022/04/29 06:30:14;;;;;;;11.60;7.35;;;8.10;99.90;;;;;;5113694;28;20028;-73
2022/04/29 06:32:40;;;;;;;12.50;7.68;;;8.20;99.90;;;;;;5111087;28;20142;-73
2022/04/29 06:35:07;;;;;;;16.33;7.70;;;8.20;99.90;;;;;;5112466;28;20043;-72
2022/04/29 06:37:34;;;;;;;9.00;7.20;;;8.30;99.90;;;;;;5112182;28;20055;-73
2022/04/29 06:39:59;;;;;;;13.55;8.02;;;8.40;99.90;;;;;;5095298;28;20126;-73
2022/04/29 06:42:25;;;;;;;11.07;7.65;;;8.40;99.90;;;;;;5111857;28;20181;-73
2022/04/29 06:44:51;;;;;;;12.60;7.43;;;8.50;99.90;;;;;;5112080;28;20039;-72
2022/04/29 06:47:18;;;;;;;13.30;7.70;;;8.50;99.90;;;;;;5113297;28;20039;-73
2022/04/29 06:49:43;;;;;;;10.90;7.35;;;8.60;99.90;;;;;;5113033;28;20051;-73
2022/04/29 06:52:09;;;;;;;10.60;7.57;;;8.70;99.90;;;;;;5113370;28;20529;-73
2022/04/29 06:54:36;;;;;;;11.05;6.22;;;8.80;99.90;;;;;;5111924;28;20109;-72
2022/04/29 06:57:02;;;;;;;10.18;6.95;;;8.80;99.90;;;;;;5113210;28;20073;-73
2022/04/29 06:59:27;;;;;;;10.50;6.75;;;8.90;99.90;;;;;;5112050;28;20114;-72
2022/04/29 07:01:54;;;;;;;9.75;7.03;;;8.90;99.90;;;;;;5112791;28;20039;-73
2022/04/29 07:04:20;;;;;;;8.85;5.80;;;8.90;99.90;;;;;;5109300;28;20051;-72
2022/04/29 07:06:46;;;;;;;9.93;6.63;;;9.00;99.90;;;;;;5112840;28;20549;-72
2022/04/29 07:09:12;;;;;;;11.05;6.70;;;9.10;99.90;;;;;;5111586;28;20036;-73
2022/04/29 07:11:38;;;;;;;9.25;6.38;;;9.20;99.90;;;;;;5113038;28;20044;-72
2022/04/29 07:14:06;;;;;;;10.00;6.15;;;9.30;99.90;;;;;;5108840;28;20122;-72
2022/04/29 07:16:31;;;;;;;9.18;6.07;;;9.30;99.90;;;;;;5111503;28;20119;-72
2022/04/29 07:18:57;;;;;;;9.02;5.90;;;9.50;99.90;;;;;;5111714;28;20126;-72
2022/04/29 07:21:23;;;;;;;11.20;5.95;;;9.50;99.90;;;;;;5112835;28;20118;-73
2022/04/29 07:23:49;;;;;;;10.05;6.25;;;9.60;99.90;;;;;;5111312;28;20047;-73
2022/04/29 07:26:15;;;;;;;8.93;5.38;;;9.80;99.90;;;;;;5110709;28;20082;-73
2022/04/29 07:28:41;;;;;;;14.57;6.00;;;10.10;99.90;;;;;;5112968;28;20617;-73
2022/04/29 07:31:07;;;;;;;10.13;4.90;;;10.40;99.90;;;;;;5095085;28;20054;-72
2022/04/29 07:33:34;;;;;;;9.88;4.95;;;10.80;99.90;;;;;;5111430;27;20432;-72
2022/04/29 07:41:46;;;;;;;6.32;4.03;;;11.70;99.90;;;;;;5119485;27;20065;-72
2022/04/29 07:44:13;;;;;;;7.35;4.15;;;11.80;99.90;;;;;;5102793;28;20588;-72
2022/04/29 07:46:43;;;;;;;7.47;3.85;;;11.90;99.90;;;;;;5121565;27;20031;-71
2022/04/29 07:49:10;;;;;;;8.98;3.95;;;11.90;99.90;;;;;;5119813;28;20055;-72
2022/04/29 07:51:36;;;;;;;7.22;4.57;;;12.00;99.90;;;;;;5121622;27;20368;-72
2022/04/29 07:54:06;;;;;;;7.20;3.92;;;12.10;99.90;;;;;;5117066;28;20604;-72
2022/04/29 07:56:32;;;;;;;7.97;3.53;;;12.30;99.90;;;;;;5115529;28;20093;-72
2022/04/29 07:58:58;;;;;;;8.23;3.75;;;12.40;99.90;;;;;;5116080;28;20491;-72
2022/04/29 08:01:25;;;;;;;10.70;3.92;;;12.60;99.90;;;;;;5122068;28;20032;-72
2022/04/29 08:03:53;;;;;;;9.55;2.65;;;12.80;99.90;;;;;;5116900;28;20099;-72
2022/04/29 08:06:19;;;;;;;8.85;2.60;;;12.80;99.90;;;;;;5118934;27;20046;-72
2022/04/29 08:08:46;;;;;;;7.95;2.45;;;12.80;99.90;;;;;;5120488;28;20039;-73
2022/04/29 08:11:12;;;;;;;6.50;2.50;;;12.80;99.90;;;;;;5122157;28;20084;-71
2022/04/29 08:13:38;;;;;;;3.88;2.40;;;12.60;99.90;;;;;;5122729;27;20027;-72
2022/04/29 08:16:05;;;;;;;5.85;2.83;;;12.50;99.90;;;;;;5118789;28;20130;-72
2022/04/29 08:18:31;;;;;;;4.68;2.85;;;12.40;99.90;;;;;;5120574;28;20057;-72
2022/04/29 08:20:57;;;;;;;5.07;2.72;;;12.40;99.90;;;;;;5120498;28;20656;-71
2022/04/29 08:23:23;;;;;;;8.52;4.10;;;12.30;99.90;;;;;;5116020;28;20122;-71
2022/04/29 08:25:49;;;;;;;5.90;2.20;;;12.40;99.90;;;;;;5119576;28;20049;-71
2022/04/29 08:28:15;;;;;;;7.97;2.70;;;12.40;99.90;;;;;;5119668;28;20040;-72
2022/04/29 08:30:41;;;;;;;8.45;3.05;;;12.40;99.90;;;;;;5119684;28;20043;-71
2022/04/29 08:33:12;;;;;;;7.40;2.72;;;12.40;99.90;;;;;;5118752;27;20031;-71
2022/04/29 08:35:39;;;;;;;4.13;2.50;;;12.50;99.90;;;;;;5121421;27;20442;-73
2022/04/29 08:38:09;;;;;;;6.50;2.70;;;12.50;99.90;;;;;;5121368;27;20046;-73
2022/04/29 08:40:45;;;;;;;5.88;2.88;;;12.40;99.90;;;;;;5125344;27;20039;-73
2022/04/29 08:43:14;;;;;;;6.65;3.15;;;12.30;99.90;;;;;;5133654;27;20039;-74
2022/04/29 08:45:41;;;;;;;4.50;2.97;;;12.40;99.90;;;;;;5136226;27;20462;-73
2022/04/29 08:48:08;;;;;;;6.65;2.70;;;12.30;99.90;;;;;;5119038;27;20491;-73
2022/04/29 08:50:34;;;;;;;3.42;2.35;;;12.30;99.90;;;;;;5120663;27;20046;-73
2022/04/29 08:53:00;;;;;;;5.70;2.60;;;12.30;99.90;;;;;;5124768;27;20040;-73
2022/04/29 09:01:04;;;;;;;4.75;2.50;;;12.10;99.90;;;;;;5120148;27;20047;-72
2022/04/29 09:03:30;;;;;;;5.72;3.05;;;12.10;99.90;;;;;;5107849;27;20044;-72
2022/04/29 09:05:56;;;;;;;3.33;2.40;;;12.00;99.90;;;;;;5121081;27;20043;-72
2022/04/29 09:08:23;;;;;;;5.22;2.50;;;12.00;99.90;;;;;;5119683;27;20071;-72
2022/04/29 09:10:54;;;;;;;8.63;2.83;;;11.90;99.90;;;;;;5115137;28;20054;-73
2022/04/29 09:13:31;;;;;;;5.75;2.90;;;11.90;99.90;;;;;;5115981;28;20408;-72
2022/04/29 09:16:04;;;;;;;7.60;3.00;;;11.80;99.90;;;;;;5114478;28;20047;-72
2022/04/29 09:18:39;;;;;;;5.25;2.50;;;11.80;99.90;;;;;;5097912;28;20051;-72
2022/04/29 09:21:16;;;;;;;5.72;2.65;;;11.80;99.90;;;;;;5114638;28;20043;-71
2022/04/29 09:23:47;;;;;;;13.38;3.38;;;11.80;99.90;;;;;;5115666;28;20040;-71
2022/04/29 09:26:29;;;;;;;;;;;11.80;99.90;;;;;;5115960;27;20391;-73
2022/04/29 09:29:08;;;;;;;8.55;3.13;;;11.80;99.90;;;;;;5115231;27;19926;-72
2022/04/29 09:31:58;;;;;;;8.23;3.05;;;11.70;99.90;;;;;;5113332;28;20126;-72
2022/04/29 09:34:42;;;;;;;8.85;3.55;;;11.70;99.90;;;;;;5108521;28;20109;-72
2022/04/29 09:37:25;;;;;;;4.95;2.92;;;11.60;99.90;;;;;;5114933;28;20479;-72
2022/04/29 09:39:52;;;;;;;6.32;3.25;;;11.50;99.90;;;;;;5096894;28;20096;-72
2022/04/29 09:42:18;;;;;;;7.43;3.03;;;11.40;99.90;;;;;;5114594;28;20039;-72
2022/04/29 09:44:45;;;;;;;6.57;3.00;;;11.40;99.90;;;;;;5113489;28;20038;-73
2022/04/29 09:47:20;;;;;;;7.32;3.30;;;11.30;99.90;;;;;;5113282;28;20118;-73
2022/04/29 09:49:55;;;;;;;7.40;3.47;;;11.20;99.90;;;;;;5112245;28;20044;-73
2022/04/29 09:52:23;;;;;;;7.32;3.67;;;11.20;99.90;;;;;;5113749;28;20054;-73
2022/04/29 09:54:50;;;;;;;5.30;3.45;;;11.20;99.90;;;;;;5114743;28;20042;-73
2022/04/29 09:57:23;;;;;;;6.10;3.10;;;11.20;99.90;;;;;;5113333;28;20047;-72
2022/04/29 09:59:58;;;;;;;6.25;3.35;;;11.30;99.90;;;;;;5113401;28;20046;-73
2022/04/29 10:02:28;;;;;;;8.43;3.20;;;11.30;99.90;;;;;;5110709;28;20040;-73
2022/04/29 10:04:55;;;;;;;7.25;3.72;;;11.30;99.90;;;;;;5119540;27;20524;-73
2022/04/29 10:07:23;;;;;;;6.68;3.58;;;11.40;99.90;;;;;;5113259;28;20092;-73
2022/04/29 10:09:51;;;;;;;7.72;3.47;;;11.40;99.90;;;;;;5113154;28;20119;-73
2022/04/29 10:12:22;;;;;;;6.50;3.90;;;11.40;99.90;;;;;;5114312;28;20043;-73
2022/04/29 10:14:51;;;;;;;8.32;4.53;;;11.30;99.90;;;;;;5093879;28;20054;-73
2022/04/29 10:22:53;;;;;;;7.20;3.72;;;11.40;99.90;;;;;;5112918;28;20123;-73
2022/04/29 10:25:22;;;;;;;5.45;3.88;;;11.50;99.90;;;;;;5112818;28;20095;-73
2022/04/29 10:27:52;;;;;;;8.48;4.68;;;11.50;99.90;;;;;;5114131;28;20038;-74
2022/04/29 10:30:33;;;;;;;7.43;3.95;;;11.50;99.90;;;;;;5113871;28;20585;-73
2022/04/29 10:33:05;;;;;;;6.68;3.30;;;11.60;99.90;;;;;;5110598;28;20072;-73
2022/04/29 10:35:40;;;;;;;6.57;3.70;;;11.60;99.90;;;;;;5114073;28;20365;-72
2022/04/29 10:38:15;;;;;;;8.13;3.80;;;11.60;99.90;;;;;;5112864;28;20132;-73
2022/04/29 10:40:42;;;;;;;6.78;4.20;;;11.60;99.90;;;;;;5112464;28;20091;-73
2022/04/29 10:43:11;;;;;;;6.60;3.90;;;11.60;99.90;;;;;;5112682;28;20102;-70
2022/04/29 10:46:03;;;;;;;6.93;3.92;;;11.60;99.90;;;;;;5111949;28;20388;-71
2022/04/29 10:48:32;;;;;;;9.02;3.95;;;11.50;99.90;;;;;;5113545;28;20080;-72
2022/04/29 10:51:08;;;;;;;6.38;3.80;;;11.40;99.90;;;;;;5112970;28;20052;-73
2022/04/29 10:53:40;;;;;;;8.45;4.00;;;11.40;99.90;;;;;;5114429;28;20050;-73
2022/04/29 10:56:28;;;;;;;6.00;4.00;;;11.40;99.90;;;;;;5113907;28;20561;-73
2022/04/29 10:59:12;;;;;;;5.65;3.50;;;11.50;99.90;;;;;;5112764;28;20031;-73
2022/04/29 11:01:39;;;;;;;5.53;3.90;;;11.50;99.90;;;;;;5113868;28;20074;-74
2022/04/29 11:04:06;;;;;;;5.05;3.55;;;11.60;99.90;;;;;;5111222;28;20067;-73
2022/04/29 11:06:44;;;;;;;7.18;3.90;;;11.80;99.90;;;;;;5111889;28;20046;-72
2022/04/29 11:09:35;;;;;;;6.95;4.38;;;12.00;99.90;;;;;;5109970;28;20036;-73
2022/04/29 11:12:03;;;;;;;6.65;4.03;;;12.20;99.90;;;;;;5111103;28;20071;-73
2022/04/29 11:14:29;;;;;;;9.10;4.18;;;12.30;99.90;;;;;;5113252;28;20035;-73
2022/04/29 11:17:16;;;;;;;9.63;3.65;;;12.20;99.90;;;;;;5107982;28;20110;-74
2022/04/29 11:19:48;;;;;;;6.50;4.05;;;12.10;99.90;;;;;;5111420;28;20535;-70
2022/04/29 11:25:03;;;;;;;5.43;3.97;;;11.90;99.90;;;;;;5111941;28;20060;-71
2022/04/29 11:27:37;;;;;;;5.72;4.07;;;12.00;99.90;;;;;;5112667;28;20818;-72
2022/04/29 11:30:03;;;;;;;5.75;3.75;;;12.00;99.90;;;;;;5111944;28;20028;-72
2022/04/29 11:32:31;;;;;;;6.60;4.07;;;12.00;99.90;;;;;;5110613;28;20118;-72
2022/04/29 11:35:00;;;;;;;7.07;4.20;;;11.90;99.90;;;;;;5089427;28;20036;-72
2022/04/29 11:37:33;;;;;;;7.17;3.80;;;11.80;99.90;;;;;;5109878;28;20114;-72
2022/04/29 11:40:08;;;;;;;5.30;4.05;;;11.80;99.90;;;;;;5111002;28;20683;-72
2022/04/29 11:42:34;;;;;;;7.05;4.30;;;11.70;99.90;;;;;;5113262;28;20483;-72
2022/04/29 11:45:10;;;;;;;8.10;4.22;;;11.70;99.90;;;;;;5113355;28;20391;-71
2022/04/29 11:47:37;;;;;;;5.90;3.63;;;11.70;99.90;;;;;;5111828;28;20052;-71
2022/04/29 11:50:04;;;;;;;8.50;4.60;;;11.70;99.90;;;;;;5112801;28;20115;-72
2022/04/29 11:52:36;;;;;;;11.23;5.00;;;11.70;99.90;;;;;;5112234;28;20054;-72
2022/04/29 11:55:17;;;;;;;7.88;4.43;;;11.70;99.90;;;;;;5112822;28;20480;-72
2022/04/29 11:57:45;;;;;;;7.85;4.53;;;11.70;99.90;;;;;;5111486;28;20044;-72
2022/04/29 12:00:22;;;;;;;4.63;4.20;;;11.70;99.90;;;;;;5112729;28;20189;-72
2022/04/29 12:02:50;;;;;;;8.38;5.10;;;11.90;99.90;;;;;;5091217;28;20036;-74
2022/04/29 12:05:16;;;;;;;7.72;4.90;;;12.00;99.90;;;;;;5112868;28;20036;-75
2022/04/29 12:07:43;;;;;;;7.68;4.78;;;12.10;99.90;;;;;;5112975;28;20035;-75
2022/04/29 12:10:26;;;;;;;8.82;4.70;;;12.10;99.90;;;;;;5093122;28;20032;-73
2022/04/29 12:12:59;;;;;;;8.40;4.20;;;12.00;99.90;;;;;;5105231;28;20118;-74
2022/04/29 12:15:32;;;;;;;6.05;4.70;;;11.90;99.90;;;;;;5116072;28;20039;-74
2022/04/29 12:17:59;;;;;;;6.45;4.53;;;11.90;99.90;;;;;;5115851;28;20036;-74
2022/04/29 12:20:26;;;;;;;8.75;4.18;;;11.90;99.90;;;;;;5115817;28;20050;-74
2022/04/29 12:22:52;;;;;;;10.82;4.35;;;11.90;99.90;;;;;;5115627;28;20569;-74
2022/04/29 12:25:25;;;;;;;7.10;4.57;;;12.00;99.90;;;;;;5098494;28;20054;-74
2022/04/29 12:28:26;;;;;;;8.98;4.78;;;12.10;99.90;;;;;;5116632;27;20404;-74
2022/04/29 12:36:57;;;;;;;8.05;4.50;;;12.50;99.90;;;;;;5113074;28;20104;-74
2022/04/29 12:40:02;;;;;;;6.55;4.93;;;12.70;99.90;;;;;;5113579;28;20096;-72
2022/04/29 12:42:28;;;;;;;8.88;4.10;;;12.80;99.90;;;;;;5108224;28;20454;-73
2022/04/29 12:45:06;;;;;;;9.48;4.40;;;12.90;99.90;;;;;;5114536;28;20128;-73
2022/04/29 12:47:38;;;;;;;9.13;4.57;;;13.00;99.90;;;;;;5115450;28;20075;-72
2022/04/29 12:50:33;;;;;;;7.88;4.50;;;13.10;99.90;;;;;;5112690;28;20524;-73
2022/04/29 12:53:05;;;;;;;9.32;4.03;;;13.20;99.90;;;;;;5115232;28;20047;-73
2022/04/29 12:55:32;;;;;;;5.85;3.72;;;13.20;99.90;;;;;;5113252;28;20117;-72
2022/04/29 12:58:18;;;;;;;8.65;3.97;;;13.20;99.90;;;;;;5114447;28;20095;-72
2022/04/29 13:00:54;;;;;;;6.55;4.20;;;13.30;99.90;;;;;;5113656;28;20559;-72
2022/04/29 13:03:28;;;;;;;8.35;4.18;;;13.40;99.90;;;;;;5111331;28;20365;-72
2022/04/29 13:05:55;;;;;;;6.95;4.25;;;13.60;99.90;;;;;;5114671;28;20111;-72
2022/04/29 13:08:22;;;;;;;4.95;3.70;;;13.70;99.90;;;;;;5115013;28;20066;-72
2022/04/29 13:10:53;;;;;;;9.55;3.60;;;13.80;99.90;;;;;;5112061;28;20050;-73
2022/04/29 13:13:23;;;;;;;6.38;3.65;;;13.80;99.90;;;;;;5114383;28;20491;-73
2022/04/29 13:15:50;;;;;;;7.10;3.70;;;13.70;99.90;;;;;;5114395;28;20066;-73
2022/04/29 13:18:18;;;;;;;4.75;3.63;;;13.70;99.90;;;;;;5114801;28;20035;-72
2022/04/29 13:20:44;;;;;;;5.57;3.80;;;13.60;99.90;;;;;;5115264;28;20031;-72
2022/04/29 13:23:11;;;;;;;7.95;4.20;;;13.50;99.90;;;;;;5111708;28;20057;-73